Orange Grove, Texas
Current Conditions -  °F | °C
As of 7:56 AM on Saturday 22 Nov 2014 (Local Time) from KNOG Reporting Station
Overcast Overcast  
Wind Chill: 70°   Ceiling: 3200
Heat Index: 70°   Visibility: 10mi
Dew Point: 68°   Wind: 13mph
Humidity: 93%   Direction: 160°SSE
Pressure: 29.97"   Gusts: NA
Location:  27.96°N, 97.94°W
Report Text: KNOG 221356Z AUTO 16011KT 10SM FEW012 BKN032 OVC041 21/20 A2997 RMK AO2 RAB06E56 SLP128 P0001 T02110200 $
Loading
Personal Weather Stations






























Interactive Weather Map New forecast layout! Learn more

10-Day Weather Forecast

Advertisements
Track Severe Weather on mobile